createdAt,value
2023-02-19T00:05:44.715Z,1015.23
2023-02-19T00:15:49.916Z,1015.31
2023-02-19T00:25:55.446Z,1015.22
2023-02-19T00:36:00.538Z,1015.08
2023-02-19T00:46:05.665Z,1015.03
2023-02-19T00:56:10.689Z,1015.07
2023-02-19T01:06:16.156Z,1014.92
2023-02-19T01:16:22.612Z,1014.83
2023-02-19T01:26:27.939Z,1014.72
2023-02-19T01:36:33.472Z,1014.23
2023-02-19T01:46:38.716Z,1014.42
2023-02-19T01:56:44.106Z,1014.27
2023-02-19T02:06:48.952Z,1014.13
2023-02-19T02:16:54.172Z,1013.99
2023-02-19T02:26:59.636Z,1014.04
2023-02-19T02:37:04.915Z,1014.11
2023-02-19T02:47:10.378Z,1013.97
2023-02-19T02:57:15.446Z,1013.92
2023-02-19T03:07:20.959Z,1014.06
2023-02-19T03:17:26.266Z,1014.16
2023-02-19T03:27:31.191Z,1014.23
2023-02-19T03:37:36.506Z,1014.33
2023-02-19T03:47:41.817Z,1014.37
2023-02-19T03:57:47.096Z,1014.37
2023-02-19T04:07:52.377Z,1014.46
2023-02-19T04:17:57.203Z,1014.64
2023-02-19T04:28:02.314Z,1014.71
2023-02-19T04:38:07.479Z,1014.82
2023-02-19T04:48:12.435Z,1014.86
2023-02-19T04:58:17.611Z,1014.92
2023-02-19T05:08:22.893Z,1015.01
2023-02-19T05:18:28.090Z,1015.07
2023-02-19T05:28:33.353Z,1014.97
2023-02-19T05:38:38.340Z,1015.01
2023-02-19T05:48:43.500Z,1015.08
2023-02-19T05:58:48.803Z,1015.17
2023-02-19T06:08:54.001Z,1015.32
2023-02-19T06:18:59.114Z,1015.24
2023-02-19T06:29:04.571Z,1015.23
2023-02-19T06:39:09.913Z,1015.44
2023-02-19T06:49:15.002Z,1015.68
2023-02-19T06:59:20.180Z,1015.99
2023-02-19T07:09:25.214Z,1016.09
2023-02-19T07:19:30.469Z,1016.18
2023-02-19T07:29:36.073Z,1016.29
2023-02-19T07:39:40.801Z,1016.42
2023-02-19T07:49:46.093Z,1016.61
2023-02-19T07:59:50.974Z,1016.75
2023-02-19T08:09:56.445Z,1016.98
2023-02-19T08:20:02.034Z,1017.21
2023-02-19T08:30:08.479Z,1017.48
2023-02-19T08:40:14.437Z,1017.75
2023-02-19T08:50:19.878Z,1017.94
2023-02-19T09:00:25.440Z,1018.00
2023-02-19T09:10:30.915Z,1018.22
2023-02-19T09:20:36.307Z,1018.30
2023-02-19T09:30:41.998Z,1018.40
2023-02-19T09:40:47.536Z,1018.47
2023-02-19T09:50:52.869Z,1018.58
2023-02-19T10:00:57.784Z,1018.72
2023-02-19T10:11:03.119Z,1018.88
2023-02-19T10:21:09.472Z,1019.10
2023-02-19T10:31:18.836Z,1019.34
2023-02-19T10:34:07.541Z,1019.35
2023-02-19T10:34:14.879Z,1019.37
2023-02-19T10:44:16.921Z,1019.45
2023-02-19T10:54:22.553Z,1019.62
2023-02-19T11:04:28.156Z,1019.80
2023-02-19T11:14:34.040Z,1019.89
2023-02-19T11:24:39.633Z,1020.04
2023-02-19T11:34:45.192Z,1020.13
2023-02-19T11:44:50.598Z,1020.19
2023-02-19T11:54:56.099Z,1020.28
2023-02-19T12:05:01.397Z,1020.26
2023-02-19T12:15:06.803Z,1020.35
2023-02-19T12:25:13.283Z,1020.48
2023-02-19T12:35:18.609Z,1020.53
2023-02-19T12:46:45.693Z,1020.72
2023-02-19T12:56:50.917Z,1020.77
2023-02-19T13:06:56.309Z,1020.78
2023-02-19T13:17:01.757Z,1021.01
2023-02-19T13:27:07.504Z,1021.08
2023-02-19T13:37:13.089Z,1021.02
2023-02-19T13:47:19.012Z,1021.03
2023-02-19T13:57:24.552Z,1021.12
2023-02-19T14:07:29.783Z,1021.30
2023-02-19T14:17:35.318Z,1021.49
2023-02-19T14:27:41.145Z,1021.53
2023-02-19T14:37:46.076Z,1021.50
2023-02-19T14:47:51.243Z,1021.44
2023-02-19T14:57:56.556Z,1021.64
2023-02-19T15:08:02.449Z,1021.64
2023-02-19T15:18:08.196Z,1021.86
2023-02-19T15:28:13.600Z,1021.85
2023-02-19T15:38:21.091Z,1021.80
2023-02-19T15:48:26.781Z,1021.97
2023-02-19T15:58:32.379Z,1022.05
2023-02-19T16:08:38.277Z,1022.25
2023-02-19T16:18:43.558Z,1022.39
2023-02-19T16:28:48.931Z,1022.65
2023-02-19T16:38:54.066Z,1022.74
2023-02-19T16:48:59.475Z,1022.80
2023-02-19T16:59:04.551Z,1022.90
2023-02-19T17:09:10.595Z,1023.03
2023-02-19T17:19:16.098Z,1023.01
2023-02-19T17:29:21.410Z,1023.12
2023-02-19T17:39:26.780Z,1023.12
2023-02-19T17:49:32.182Z,1023.18
2023-02-19T17:59:37.780Z,1023.35
2023-02-19T18:09:43.299Z,1023.37
2023-02-19T18:19:48.465Z,1023.50
2023-02-19T18:29:54.146Z,1023.58
2023-02-19T18:39:59.328Z,1023.55
2023-02-19T18:50:04.863Z,1023.65
2023-02-19T19:00:10.290Z,1023.72
2023-02-19T19:10:15.696Z,1023.64
2023-02-19T19:20:21.665Z,1023.65
2023-02-19T19:30:26.795Z,1023.68
2023-02-19T19:40:32.163Z,1023.63
2023-02-19T19:50:37.406Z,1023.67
2023-02-19T20:00:42.675Z,1023.57
2023-02-19T20:10:47.972Z,1023.49
2023-02-19T20:20:54.035Z,1023.67
2023-02-19T20:30:59.548Z,1023.73
2023-02-19T20:41:05.435Z,1023.82
2023-02-19T20:51:10.845Z,1023.85
2023-02-19T21:01:16.204Z,1023.81
2023-02-19T21:11:21.595Z,1023.97
2023-02-19T21:21:27.250Z,1023.87
2023-02-19T21:31:32.852Z,1023.65
2023-02-19T21:41:38.485Z,1023.47
2023-02-19T21:51:44.281Z,1023.45
2023-02-19T22:01:49.764Z,1023.41
2023-02-19T22:11:55.444Z,1023.22
2023-02-19T22:22:00.582Z,1023.05
2023-02-19T22:32:06.618Z,1022.88
2023-02-19T22:42:12.254Z,1022.98
2023-02-19T22:52:18.120Z,1023.09
2023-02-19T23:02:23.907Z,1023.27
2023-02-19T23:12:29.358Z,1023.28
2023-02-19T23:22:34.515Z,1023.28
2023-02-19T23:32:40.383Z,1023.12
2023-02-19T23:42:46.046Z,1022.99
2023-02-19T23:52:51.205Z,1022.92
